Taunton 2W

41° 53' 56"N, 71° 08' 19"W, Elevation 50 ft.
Eastern Time

Hourly observations for the last 72 hours

Date Time Temperature (°F) Humi-
dity

(%)
Wind
(mph)
Pressure Rain (in) Sun
(W/m2)
UV ET
(in)
Air Dew 6 Hour 1 Hr 3 Hr 6 Hr Day
Alt
(in)
Sea
Level

(mb)
Max Min
16 10:00 48.8 32.0 52 W 12 G 24 29.79 1008.9 0.01 571 1.9 0.012
16 09:00 46.8 34.9 63 W 7 G 17 29.79 1008.8 0.01 388 0.8 0.006
16 08:00 44.4 35.6 52.7 42.8 71 W 5 G 15 29.78 1008.4 0.01 0.01 183 0.0 0.004
16 07:00 43.4 36.3 76 W 4 G 9 29.76 1007.9 0.01 7 0.0 0.003
16 06:00 45.0 37.9 76 W 5 G 8 29.74 1007.1 0.01 0 0.0 0.002
16 05:00 46.9 39.4 75 WNW 7 G 12 29.70 1005.7 0.01 0.01 0 0.0 0.001
16 04:00 47.9 42.0 80 W 4 G 12 29.67 1004.7 0.01 0.01 0 0.0 0.000
16 03:00 49.8 47.6 92 WNW 5 G 12 29.65 1004.0 0.00 0 0.0 0.000
16 02:00 52.4 51.3 52.5 49.9 96 WSW 5 G 10 29.63 1003.4 0.04 0.00 0 0.0 0.000
16 01:00 52.3 51.2 96 S 3 G 10 29.60 1002.6 0.00 0 0.0 0.000
16 00:00 52.3 51.2 96 S 4 G 12 29.62 1003.1 0.08 0 0.0 0.055
15 23:00 51.3 49.9 95 S 2 G 6 29.64 1003.6 0.04 0.04 0.08 0 0.0 0.055
15 22:00 50.5 49.1 95 S 2 G 6 29.65 1004.0 0.04 0 0.0 0.055
15 21:00 50.2 48.5 94 SSE 2 G 7 29.67 1004.9 0.04 0 0.0 0.055
15 20:00 50.3 48.6 58.0 50.3 94 SSE 3 G 10 29.69 1005.5 0.02 0.03 0.03 0.04 0 0.0 0.055
15 19:00 51.5 49.3 92 SSE 3 G 11 29.69 1005.6 0.01 0.02 0 0.0 0.054
15 18:00 54.0 50.2 87 S 5 G 16 29.73 1006.8 0.01 12 0.0 0.052
15 17:00 55.0 50.6 85 S 3 G 12 29.73 1006.9 0.01 102 0.0 0.048
15 16:00 56.3 51.2 83 S 5 G 12 29.73 1006.8 0.01 272 1.3 0.042
15 15:00 57.7 52.2 82 SSW 5 G 17 29.75 1007.4 0.01 313 1.9 0.034
15 14:00 56.9 52.1 58.3 51.0 84 S 4 G 9 29.78 1008.5 0.01 0.01 0.01 155 1.7 0.029
15 13:00 57.0 52.2 84 S 9 G 18 29.81 1009.3 0.01 422 3.1 0.020
15 12:00 56.9 53.1 87 SW 7 G 17 29.82 1009.9 0.01 0.01 253 1.9 0.014
15 11:00 54.9 51.1 87 SSW 5 G 24 29.84 1010.6 0.00 53 0.0 0.010
15 10:00 53.2 50.3 90 S 4 G 14 29.87 1011.7 0.00 306 1.1 0.007
15 09:00 53.2 49.7 88 SSW 6 G 20 29.88 1011.9 0.00 118 0.5 0.004
15 08:00 51.0 48.5 51.9 46.1 91 SSE 5 G 16 29.89 1012.2 0.00 65 0.0 0.003
15 07:00 50.7 48.2 91 S 6 G 14 29.91 1013.0 0.00 0 0.0 0.003
15 06:00 50.3 47.5 90 SSW 4 G 13 29.93 1013.5 0.00 0 0.0 0.002
15 05:00 51.7 48.3 88 S 6 G 17 29.94 1013.9 0.00 0 0.0 0.001
15 04:00 48.5 44.8 87 SE 2 G 6 29.96 1014.7 0.00 0 0.0 0.001
15 03:00 46.6 42.0 84 SE 2 G 7 30.00 1016.0 0.00 0 0.0 0.000
15 02:00 46.1 41.8 46.1 34.1 85 SE 3 G 9 30.05 1017.5 0.00 0 0.0 0.000
15 01:00 40.8 39.7 96 S 1 G 11 30.07 1018.3 0.00 0 0.0 0.000
15 00:00 34.6 32.8 93 Calm 30.10 1019.2 0.00 0 0.0 0.059
14 23:00 34.9 32.5 91 Calm 30.11 1019.8 0.00 0 0.0 0.059
14 22:00 38.5 35.5 89 Calm 30.13 1020.3 0.00 0 0.0 0.059
14 21:00 42.0 37.5 84 SE 0 G 3 30.14 1020.5 0.00 0 0.0 0.059
14 20:00 43.3 37.9 50.6 43.3 81 ESE 0 G 2 30.15 1021.2 0.00 0 0.0 0.058
14 19:00 45.7 38.2 75 SE 1 G 7 30.16 1021.5 0.00 0 0.0 0.057
14 18:00 48.4 38.3 68 SE 4 G 12 30.18 1022.0 0.00 70 0.0 0.053
14 17:00 49.1 35.4 59 SE 4 G 9 30.19 1022.6 0.00 214 0.6 0.048
14 16:00 49.7 32.8 52 SSE 3 G 9 30.20 1022.7 0.00 258 1.1 0.041
14 15:00 50.1 28.5 43 S 5 G 11 30.21 1023.1 0.00 404 1.9 0.034
14 14:00 48.7 33.7 48.8 35.5 56 ESE 2 G 11 30.23 1023.6 0.00 376 2.3 0.027
14 13:00 47.5 33.9 59 SE 4 G 7 30.24 1024.1 0.00 260 1.7 0.022
14 12:00 47.0 33.0 58 SSE 3 G 9 30.25 1024.6 0.00 357 2.1 0.014
14 11:00 45.2 35.6 69 SSE 2 G 8 30.27 1025.0 0.00 480 2.3 0.007
14 10:00 43.2 35.8 75 SE 2 G 7 30.29 1025.7 0.00 427 1.5 0.003
14 09:00 39.5 34.5 82 SE 1 G 4 30.29 1025.8 0.00 142 0.5 0.001
14 08:00 35.5 31.7 35.9 33.9 86 Calm 30.29 1025.7 0.00 74 0.0 0.001
14 07:00 34.1 30.6 87 Calm 30.29 1025.8 0.00 0 0.0 0.001
14 06:00 34.3 30.6 86 Calm 30.28 1025.4 0.00 0 0.0 0.001
14 05:00 34.9 30.3 83 Calm 30.26 1024.8 0.00 0 0.0 0.001
14 04:00 35.7 30.4 81 SSE 0 G 1 30.26 1024.7 0.00 0 0.0 0.001
14 03:00 34.4 30.1 84 SSE 0 G 3 30.29 1025.7 0.00 0 0.0 0.001
14 02:00 35.8 30.2 36.8 35.7 80 SSE 0 G 3 30.29 1025.9 0.00 0 0.0 0.001
14 01:00 36.2 30.3 79 SSW 0 G 2 30.30 1026.1 0.00 0 0.0 0.000
14 00:00 36.5 29.7 76 S 2 G 5 30.29 1025.8 0.00 0 0.0 0.079
13 23:00 36.6 29.1 74 S 2 G 4 30.29 1025.9 0.00 0 0.0 0.078
13 22:00 36.7 29.2 74 S 1 G 9 30.31 1026.5 0.00 0 0.0 0.077
13 21:00 36.4 28.6 73 SSE 3 G 6 30.27 1025.2 0.00 0 0.0 0.076
13 20:00 36.4 27.6 44.6 36.3 70 SSE 1 G 6 30.30 1026.1 0.00 0 0.0 0.075
13 19:00 36.6 25.2 63 S 1 G 6 30.30 1026.0 0.00 0 0.0 0.074
13 18:00 38.2 21.7 51 SSW 3 G 11 30.28 1025.5 0.00 47 0.0 0.072
13 17:00 40.2 21.6 47 SSW 5 G 11 30.28 1025.4 0.00 141 0.0 0.068
13 16:00 43.1 18.6 37 SSW 3 G 7 30.27 1025.3 0.00 176 0.7 0.062
13 15:00 43.7 21.0 40 SW 4 G 9 30.29 1025.8 0.00 452 1.8 0.052
13 14:00 42.6 20.5 43.4 21.5 41 SSW 2 G 8 30.31 1026.4 0.00 559 2.4 0.043
13 13:00 40.6 17.0 38 N 3 G 5 30.33 1027.2 0.00 640 3.1 0.031
13 12:00 38.6 19.6 46 E 2 G 4 30.35 1027.9 0.00 758 3.4 0.020
13 11:00 36.1 18.8 49 E 2 G 3 30.36 1028.1 0.00 682 2.6 0.011

Data generated by WxSolution Version 1.9.1.7, Build 2018.11.24.